CYHZ/YHZ METAR and TAF weather

Enter ICAO airport designator
Station Type Date Time Source
CYHZ METAR 2018/12/13 00:00 UTC NOAA

CYHZ 130000Z 33016G22KT 12SM -SN OVC020 M07/M10 A2989 RMK SC8 SLP135


Station Type Date Time Source
CYHZ Decoded METAR 2018/12/13 00:00 UTC NOAA

Halifax International Airport , Canada (CYHZ) 44-53N 063-30W
Dec 12, 2018 - 07:00 PM EST / 2018.12.13 0000 UTC
Wind: from the NNW (330 degrees) at 18 MPH (16 KT) gusting to 25 MPH (22 KT):0
Visibility: 12 mile(s):0
Sky conditions: overcast
Weather: light snow
Temperature: 19 F (-7 C)
Windchill: 3 F (-16 C):1
Dew Point: 14 F (-10 C)
Relative Humidity: 79%
Pressure (altimeter): 29.89 in. Hg (1012 hPa)
ob: CYHZ 130000Z 33016G22KT 12SM -SN OVC020 M07/M10 A2989 RMK SC8 SLP135
cycle: 0

Station Type Date Time Source
CYHZ TAF 2018/12/12 21:39 UTC NOAA

TAF TAF CYHZ 122038Z 1221/1318 33018G28KT 11/2SM -SHSN OVC020
TEMPO 1221/1224 6SM -SHSN OVC025
FM130000 33018G28KT P6SM -SHSN BKN020 OVC030
FM130700 32012G22KT P6SM BKN020
FM131500 32012G22KT P6SM FEW020
RMK NXT FCST BY 130000Z


Example: see airport list